Time;durP1;ratioP1;P1;durP2;ratioP2;P2;SDS_P1;SDS_P2;PMS_P1;PMS_P2;Temp;Humidity;BMP_temperature;BMP_pressure;BME280_temperature;BME280_humidity;BME280_pressure;Samples;Min_cycle;Max_cycle;Signal;HPM_P1;HPM_P2
2024/01/07 00:03:51;;;;;;;688.80;623.67;;;;;;;;;;10357764;28;20322;-74
2024/01/07 00:08:51;;;;;;;698.83;632.75;;;;;;;;;;10356831;28;20235;-74
2024/01/07 00:13:51;;;;;;;666.17;600.30;;;;;;;;;;10372824;28;20087;-74
2024/01/07 00:18:52;;;;;;;682.90;620.78;;;;;;;;;;10354134;28;20220;-75
2024/01/07 00:23:52;;;;;;;680.58;618.80;;;;;;;;;;10370804;28;20022;-74
2024/01/07 00:28:52;;;;;;;701.92;637.72;;;;;;;;;;10356070;28;20311;-75
2024/01/07 00:33:53;;;;;;;718.13;652.47;;;;;;;;;;10353966;28;20022;-76
2024/01/07 00:38:53;;;;;;;711.70;648.45;;;;;;;;;;10353504;28;20060;-75
2024/01/07 00:43:53;;;;;;;715.67;650.10;;;;;;;;;;10372499;28;20021;-77
2024/01/07 00:48:53;;;;;;;694.95;632.83;;;;;;;;;;10379815;28;20013;-74
2024/01/07 00:53:54;;;;;;;708.03;645.70;;;;;;;;;;10380961;28;20223;-75
2024/01/07 00:58:54;;;;;;;646.03;584.47;;;;;;;;;;10381121;28;20113;-76
2024/01/07 01:03:54;;;;;;;721.78;658.35;;;;;;;;;;10380861;28;20036;-75
2024/01/07 01:08:54;;;;;;;672.80;610.70;;;;;;;;;;10380804;28;20360;-76
2024/01/07 01:13:55;;;;;;;675.35;612.28;;;;;;;;;;10357429;28;20009;-75
2024/01/07 01:18:55;;;;;;;653.42;590.78;;;;;;;;;;10381399;28;20285;-75
2024/01/07 01:23:55;;;;;;;692.95;631.72;;;;;;;;;;10380578;28;20327;-75
2024/01/07 01:28:55;;;;;;;655.60;594.15;;;;;;;;;;10379340;28;20025;-74
2024/01/07 01:33:55;;;;;;;688.15;623.92;;;;;;;;;;10379853;28;20085;-75
2024/01/07 01:38:56;;;;;;;702.50;636.92;;;;;;;;;;10378792;28;20037;-76
2024/01/07 01:43:57;;;;;;;706.08;638.55;;;;;;;;;;10378874;28;20025;-75
2024/01/07 01:48:58;;;;;;;682.63;616.25;;;;;;;;;;10379197;28;20110;-75
2024/01/07 01:53:58;;;;;;;708.78;642.20;;;;;;;;;;10377753;28;20244;-75
2024/01/07 01:58:59;;;;;;;718.30;651.40;;;;;;;;;;10378606;28;20049;-75
2024/01/07 02:03:59;;;;;;;690.58;625.15;;;;;;;;;;10362207;28;20018;-75
2024/01/07 02:09:00;;;;;;;709.78;640.20;;;;;;;;;;10361788;28;20014;-74
2024/01/07 02:14:00;;;;;;;690.40;620.43;;;;;;;;;;10378700;28;20386;-75
2024/01/07 02:19:00;;;;;;;706.30;634.78;;;;;;;;;;10378084;28;20296;-75
2024/01/07 02:24:04;;;;;;;729.80;659.00;;;;;;;;;;10378349;28;20018;-75
2024/01/07 02:29:04;;;;;;;713.08;647.80;;;;;;;;;;10379608;28;20319;-75
2024/01/07 02:34:04;;;;;;;794.25;727.42;;;;;;;;;;10360005;28;20044;-75
2024/01/07 02:39:05;;;;;;;773.10;705.42;;;;;;;;;;10377575;28;20041;-76
2024/01/07 02:44:05;;;;;;;771.97;702.15;;;;;;;;;;10377132;28;20074;-75
2024/01/07 02:49:05;;;;;;;773.63;703.22;;;;;;;;;;10376674;28;20021;-76
2024/01/07 02:54:05;;;;;;;798.60;727.03;;;;;;;;;;10376768;28;20021;-75
2024/01/07 02:59:06;;;;;;;783.42;712.28;;;;;;;;;;10376644;28;20037;-75
2024/01/07 03:04:07;;;;;;;781.60;713.00;;;;;;;;;;10359423;28;20030;-75
2024/01/07 03:09:07;;;;;;;784.10;718.78;;;;;;;;;;10376013;28;20025;-76
2024/01/07 03:14:08;;;;;;;765.35;703.15;;;;;;;;;;10376269;28;20029;-76
2024/01/07 03:19:09;;;;;;;791.03;730.95;;;;;;;;;;10375845;28;20225;-75
2024/01/07 03:24:10;;;;;;;795.75;726.92;;;;;;;;;;10376442;28;20057;-75
2024/01/07 03:29:10;;;;;;;785.10;715.35;;;;;;;;;;10375736;28;20097;-74
2024/01/07 03:34:10;;;;;;;825.05;749.40;;;;;;;;;;10375788;28;20077;-74
2024/01/07 03:39:11;;;;;;;817.97;739.67;;;;;;;;;;10376337;28;20025;-76
2024/01/07 03:44:11;;;;;;;810.53;731.80;;;;;;;;;;10375492;28;20018;-77
2024/01/07 03:49:11;;;;;;;811.20;732.78;;;;;;;;;;10376585;28;20307;-76
2024/01/07 03:54:11;;;;;;;781.10;707.35;;;;;;;;;;10375223;28;20030;-75
2024/01/07 03:59:12;;;;;;;796.13;722.45;;;;;;;;;;10357402;28;20151;-75
2024/01/07 04:04:13;;;;;;;780.60;706.72;;;;;;;;;;10375616;28;20097;-75
2024/01/07 04:09:13;;;;;;;817.20;743.28;;;;;;;;;;10361251;28;20059;-75
2024/01/07 04:14:14;;;;;;;764.38;689.47;;;;;;;;;;10360764;28;20026;-76
2024/01/07 04:19:14;;;;;;;753.30;682.13;;;;;;;;;;10358247;28;20303;-75
2024/01/07 04:24:14;;;;;;;740.83;669.50;;;;;;;;;;10382953;28;20093;-75
2024/01/07 04:29:15;;;;;;;753.72;685.20;;;;;;;;;;10381949;28;20036;-74
2024/01/07 04:34:15;;;;;;;767.28;695.22;;;;;;;;;;10382337;28;20026;-77
2024/01/07 04:39:15;;;;;;;733.50;661.78;;;;;;;;;;10382010;28;20245;-74
2024/01/07 04:44:15;;;;;;;762.60;691.88;;;;;;;;;;10381525;28;20033;-74
2024/01/07 04:49:15;;;;;;;737.33;668.85;;;;;;;;;;10381874;28;20101;-75
2024/01/07 04:54:16;;;;;;;674.22;605.15;;;;;;;;;;10382195;28;20326;-74
2024/01/07 04:59:16;;;;;;;687.00;617.33;;;;;;;;;;10363585;28;20104;-76
2024/01/07 05:04:16;;;;;;;698.55;632.35;;;;;;;;;;10363527;28;20040;-74
2024/01/07 05:09:17;;;;;;;689.15;623.53;;;;;;;;;;10380796;28;20223;-74
2024/01/07 05:14:17;;;;;;;723.45;656.45;;;;;;;;;;10363311;28;20414;-76
2024/01/07 05:19:17;;;;;;;731.15;664.40;;;;;;;;;;10380598;28;20061;-75
2024/01/07 05:24:17;;;;;;;655.78;591.05;;;;;;;;;;10362988;28;20018;-75
2024/01/07 05:29:18;;;;;;;694.53;629.67;;;;;;;;;;10379764;28;20068;-74
2024/01/07 05:34:18;;;;;;;692.95;627.70;;;;;;;;;;10378956;28;20210;-75
2024/01/07 05:39:18;;;;;;;703.42;638.03;;;;;;;;;;10378665;28;20026;-75
2024/01/07 05:44:18;;;;;;;709.85;643.58;;;;;;;;;;10378911;28;20303;-77
2024/01/07 05:49:19;;;;;;;698.95;631.67;;;;;;;;;;10379062;28;20349;-74
2024/01/07 05:54:19;;;;;;;695.03;627.00;;;;;;;;;;10379388;28;20185;-75
2024/01/07 05:59:19;;;;;;;696.45;627.92;;;;;;;;;;10378835;28;20148;-74
2024/01/07 06:04:19;;;;;;;687.80;619.92;;;;;;;;;;10378836;28;20044;-75
2024/01/07 06:09:20;;;;;;;683.28;615.20;;;;;;;;;;10378488;28;20026;-75
2024/01/07 06:14:20;;;;;;;665.13;596.17;;;;;;;;;;10378991;28;20029;-74
2024/01/07 06:19:20;;;;;;;698.95;626.35;;;;;;;;;;10360441;28;20022;-76
2024/01/07 06:24:21;;;;;;;655.08;590.67;;;;;;;;;;10353047;28;20028;-75
2024/01/07 06:29:21;;;;;;;637.15;572.13;;;;;;;;;;10376670;28;20014;-75
2024/01/07 06:34:21;;;;;;;652.35;585.97;;;;;;;;;;10375564;28;20085;-76
2024/01/07 06:39:21;;;;;;;649.65;586.85;;;;;;;;;;10375338;28;20336;-77
2024/01/07 06:44:23;;;;;;;661.70;597.45;;;;;;;;;;10356489;28;20241;-88
2024/01/07 06:49:23;;;;;;;668.00;603.03;;;;;;;;;;10354087;28;20120;-80
2024/01/07 06:54:24;;;;;;;645.80;581.72;;;;;;;;;;10358655;28;20193;-77
2024/01/07 06:59:25;;;;;;;639.83;573.88;;;;;;;;;;10357754;28;20042;-84
2024/01/07 07:04:25;;;;;;;668.05;600.45;;;;;;;;;;10352120;28;20337;-78
2024/01/07 07:09:25;;;;;;;694.83;624.72;;;;;;;;;;10373078;28;20344;-77
2024/01/07 07:14:25;;;;;;;667.28;599.45;;;;;;;;;;10368811;28;20028;-79
2024/01/07 07:19:26;;;;;;;690.33;622.03;;;;;;;;;;10348769;28;20084;-78
2024/01/07 07:24:26;;;;;;;693.38;622.78;;;;;;;;;;10326986;28;20026;-77
2024/01/07 07:29:26;;;;;;;671.15;603.22;;;;;;;;;;10340702;28;20334;-79
2024/01/07 07:34:27;;;;;;;724.88;655.30;;;;;;;;;;10341038;28;20037;-79
2024/01/07 07:39:27;;;;;;;713.90;644.83;;;;;;;;;;10347955;28;20223;-79
2024/01/07 07:44:27;;;;;;;702.28;631.95;;;;;;;;;;10345389;28;20026;-72
2024/01/07 07:49:28;;;;;;;775.22;702.03;;;;;;;;;;10342102;28;20033;-75
2024/01/07 07:54:28;;;;;;;771.83;694.75;;;;;;;;;;10318187;28;20021;-74
2024/01/07 07:59:28;;;;;;;800.25;720.78;;;;;;;;;;10335708;28;20136;-73
2024/01/07 08:04:28;;;;;;;802.88;723.67;;;;;;;;;;10336477;28;20033;-77
2024/01/07 08:09:28;;;;;;;799.22;718.65;;;;;;;;;;10348475;28;20014;-80
2024/01/07 08:14:29;;;;;;;788.67;709.30;;;;;;;;;;10359609;28;20105;-79
2024/01/07 08:19:29;;;;;;;815.55;737.08;;;;;;;;;;10352997;28;20042;-73
2024/01/07 08:24:30;;;;;;;788.10;710.72;;;;;;;;;;10355539;28;20017;-75
2024/01/07 08:29:31;;;;;;;778.13;698.20;;;;;;;;;;10335793;28;20276;-74
2024/01/07 08:34:31;;;;;;;795.83;717.25;;;;;;;;;;10343770;28;20311;-75
2024/01/07 08:39:31;;;;;;;761.42;684.92;;;;;;;;;;10341466;28;20284;-74
2024/01/07 08:44:31;;;;;;;788.47;709.47;;;;;;;;;;10348548;28;20014;-74
2024/01/07 08:49:35;;;;;;;803.47;726.35;;;;;;;;;;10348030;28;20349;-74
2024/01/07 08:54:36;;;;;;;807.28;725.55;;;;;;;;;;10338117;28;20025;-75
2024/01/07 08:59:36;;;;;;;812.25;726.83;;;;;;;;;;10341725;28;20328;-76
2024/01/07 09:04:36;;;;;;;872.53;785.75;;;;;;;;;;10333524;28;20022;-74
2024/01/07 09:09:37;;;;;;;849.10;761.70;;;;;;;;;;10335551;28;20330;-75
2024/01/07 09:14:37;;;;;;;878.03;786.67;;;;;;;;;;10328105;28;20097;-75
2024/01/07 09:19:38;;;;;;;814.22;733.25;;;;;;;;;;10336126;28;20064;-74
2024/01/07 09:24:38;;;;;;;843.53;768.70;;;;;;;;;;10337797;28;20031;-75
2024/01/07 09:29:39;;;;;;;839.00;760.10;;;;;;;;;;10337494;28;20052;-74
2024/01/07 09:34:39;;;;;;;798.60;721.97;;;;;;;;;;10329724;28;20323;-75
2024/01/07 09:39:42;;;;;;;835.95;755.08;;;;;;;;;;10364978;28;20362;-75
2024/01/07 09:44:43;;;;;;;883.67;796.78;;;;;;;;;;10371288;28;20024;-74
2024/01/07 09:49:43;;;;;;;877.92;786.53;;;;;;;;;;10371721;28;20324;-75
2024/01/07 09:54:45;;;;;;;908.72;818.45;;;;;;;;;;10370482;28;20154;-75
2024/01/07 09:59:46;;;;;;;922.00;830.40;;;;;;;;;;10370660;28;20042;-76
2024/01/07 10:04:48;;;;;;;895.42;802.90;;;;;;;;;;10370447;28;20025;-75
2024/01/07 10:09:48;;;;;;;942.97;847.53;;;;;;;;;;10369686;28;20084;-74
2024/01/07 10:14:48;;;;;;;978.13;879.78;;;;;;;;;;10366433;28;20081;-75
2024/01/07 10:19:48;;;;;;;956.17;858.40;;;;;;;;;;10359327;28;20491;-75
2024/01/07 10:24:51;;;;;;;977.42;879.15;;;;;;;;;;10351107;28;20316;-76
2024/01/07 10:29:51;;;;;;;975.08;875.92;;;;;;;;;;10351774;28;20219;-74
2024/01/07 10:34:53;;;;;;;973.88;874.28;;;;;;;;;;10367899;28;20054;-74
2024/01/07 10:39:54;;;;;;;962.22;863.35;;;;;;;;;;10350912;28;20349;-74
2024/01/07 10:44:55;;;;;;;1003.22;901.80;;;;;;;;;;10351136;28;20029;-76
2024/01/07 10:49:56;;;;;;;1020.50;918.38;;;;;;;;;;10368511;28;20097;-74
2024/01/07 10:54:57;;;;;;;1045.72;942.30;;;;;;;;;;10369196;28;20393;-74
2024/01/07 10:59:59;;;;;;;1016.85;914.58;;;;;;;;;;10368094;28;20057;-74
2024/01/07 11:05:08;;;;;;;1013.58;911.22;;;;;;;;;;10368114;28;20045;-76
2024/01/07 11:10:11;;;;;;;990.47;889.10;;;;;;;;;;10350349;28;20026;-74
2024/01/07 11:15:12;;;;;;;990.38;889.53;;;;;;;;;;10367236;28;20077;-74
2024/01/07 11:20:14;;;;;;;958.22;858.70;;;;;;;;;;10367826;28;20541;-74
2024/01/07 11:25:31;;;;;;;1008.55;906.50;;;;;;;;;;10367447;28;20026;-74
2024/01/07 11:30:37;;;;;;;941.17;842.85;;;;;;;;;;10348854;28;20029;-74
2024/01/07 11:35:53;;;;;;;909.03;815.35;;;;;;;;;;10350560;28;20116;-75
2024/01/07 11:40:55;;;;;;;895.03;805.65;;;;;;;;;;10354596;28;20030;-77
2024/01/07 11:45:55;;;;;;;904.08;823.85;;;;;;;;;;10359294;28;20395;-76
2024/01/07 11:50:55;;;;;;;901.30;819.20;;;;;;;;;;10352234;28;20017;-75
2024/01/07 11:55:56;;;;;;;895.13;812.97;;;;;;;;;;10349055;28;20018;-75
2024/01/07 12:00:57;;;;;;;878.05;785.50;;;;;;;;;;10359894;28;20339;-75
2024/01/07 12:05:57;;;;;;;868.05;774.03;;;;;;;;;;10336986;28;20053;-76
2024/01/07 12:10:59;;;;;;;907.25;810.65;;;;;;;;;;10327556;28;20351;-74
2024/01/07 12:15:59;;;;;;;908.40;811.25;;;;;;;;;;10340525;28;20308;-75
2024/01/07 12:21:00;;;;;;;903.42;812.05;;;;;;;;;;10343988;28;20028;-75
2024/01/07 12:26:07;;;;;;;922.07;835.10;;;;;;;;;;10322205;28;20193;-74
2024/01/07 12:31:07;;;;;;;903.42;809.35;;;;;;;;;;10339705;28;20207;-74
2024/01/07 12:36:07;;;;;;;886.45;795.35;;;;;;;;;;10323164;28;20050;-74
2024/01/07 12:41:08;;;;;;;937.10;840.50;;;;;;;;;;10331067;28;20026;-74
2024/01/07 12:46:10;;;;;;;852.17;760.17;;;;;;;;;;10339133;28;20050;-75
2024/01/07 12:51:10;;;;;;;899.28;815.22;;;;;;;;;;10341783;28;20052;-75
2024/01/07 12:56:10;;;;;;;922.30;837.25;;;;;;;;;;10337548;28;20061;-75
2024/01/07 13:01:11;;;;;;;874.40;791.13;;;;;;;;;;10343014;28;20054;-75
2024/01/07 13:06:11;;;;;;;850.47;766.30;;;;;;;;;;10341795;28;20045;-73
2024/01/07 13:11:13;;;;;;;922.45;829.05;;;;;;;;;;10353686;28;20071;-75
2024/01/07 13:16:14;;;;;;;894.42;809.60;;;;;;;;;;10344618;28;20026;-75
2024/01/07 13:21:14;;;;;;;882.37;798.80;;;;;;;;;;10345527;28;20349;-75
2024/01/07 13:26:15;;;;;;;921.20;833.83;;;;;;;;;;10338988;28;20060;-74
2024/01/07 13:31:16;;;;;;;892.33;796.58;;;;;;;;;;10328097;28;20315;-75
2024/01/07 13:36:16;;;;;;;876.90;781.97;;;;;;;;;;10334471;28;20038;-75
2024/01/07 13:41:16;;;;;;;871.35;775.42;;;;;;;;;;10348341;28;20013;-75
2024/01/07 13:46:19;;;;;;;864.80;768.70;;;;;;;;;;10331035;28;20187;-75
2024/01/07 13:51:19;;;;;;;867.17;772.95;;;;;;;;;;10339078;28;20040;-73
2024/01/07 13:56:19;;;;;;;874.70;778.17;;;;;;;;;;10317566;28;20049;-75
2024/01/07 14:01:20;;;;;;;903.33;807.88;;;;;;;;;;10345829;28;20050;-75
2024/01/07 14:06:21;;;;;;;881.05;783.85;;;;;;;;;;10342779;28;20045;-75
2024/01/07 14:11:22;;;;;;;884.30;788.10;;;;;;;;;;10348289;28;20028;-75
2024/01/07 14:16:22;;;;;;;914.67;817.22;;;;;;;;;;10323732;28;20319;-79
2024/01/07 14:21:22;;;;;;;897.73;801.10;;;;;;;;;;10342740;28;20335;-71
2024/01/07 14:26:23;;;;;;;879.75;784.42;;;;;;;;;;10323515;28;20018;-72
2024/01/07 14:31:23;;;;;;;904.42;807.30;;;;;;;;;;10338405;28;20217;-71
2024/01/07 14:36:24;;;;;;;889.97;794.30;;;;;;;;;;10354602;28;20026;-71
2024/01/07 14:41:24;;;;;;;928.15;829.45;;;;;;;;;;10368952;28;20332;-71
2024/01/07 14:46:24;;;;;;;861.63;762.10;;;;;;;;;;10368926;28;20346;-73
2024/01/07 14:51:24;;;;;;;891.05;793.75;;;;;;;;;;10351414;28;20246;-72
2024/01/07 14:56:24;;;;;;;875.50;779.33;;;;;;;;;;10367469;28;20527;-72
2024/01/07 15:01:25;;;;;;;858.17;750.30;;;;;;;;;;10359380;28;20283;-72
2024/01/07 15:06:26;;;;;;;843.47;749.27;;;;;;;;;;10366067;28;20026;-73
2024/01/07 15:11:26;;;;;;;824.78;683.13;;;;;;;;;;10373379;28;20026;-73
2024/01/07 15:16:26;;;;;;;838.55;726.10;;;;;;;;;;10368247;28;20311;-73
2024/01/07 15:21:27;;;;;;;845.92;729.05;;;;;;;;;;10368880;28;20025;-72
2024/01/07 15:26:27;;;;;;;843.88;707.08;;;;;;;;;;10368117;28;20331;-73
2024/01/07 15:31:27;;;;;;;836.92;706.78;;;;;;;;;;10369745;28;20010;-73
2024/01/07 15:36:27;;;;;;;826.30;711.50;;;;;;;;;;10351856;28;20212;-72
2024/01/07 15:41:28;;;;;;;825.60;702.75;;;;;;;;;;10367650;28;20328;-75
2024/01/07 15:46:28;;;;;;;752.72;674.22;;;;;;;;;;10368386;28;20103;-77
2024/01/07 15:51:28;;;;;;;725.67;648.15;;;;;;;;;;10367963;28;20331;-72
2024/01/07 15:56:28;;;;;;;769.22;690.17;;;;;;;;;;10368401;28;20041;-73
2024/01/07 16:01:29;;;;;;;733.90;656.28;;;;;;;;;;10369636;28;20034;-72
2024/01/07 16:06:29;;;;;;;794.15;708.22;;;;;;;;;;10349388;28;20032;-73
2024/01/07 16:11:29;;;;;;;752.72;681.08;;;;;;;;;;10366888;28;20036;-73
2024/01/07 16:16:31;;;;;;;753.22;674.28;;;;;;;;;;10368901;28;20030;-73
2024/01/07 16:21:31;;;;;;;761.17;646.38;;;;;;;;;;10376002;28;20045;-74
2024/01/07 16:26:31;;;;;;;723.05;643.20;;;;;;;;;;10368145;28;20014;-75
2024/01/07 16:31:31;;;;;;;728.97;649.95;;;;;;;;;;10363289;28;20058;-73
2024/01/07 16:36:32;;;;;;;785.85;680.10;;;;;;;;;;10371954;28;20029;-76
2024/01/07 16:41:38;;;;;;;857.53;760.85;;;;;;;;;;10384926;28;20018;-86
2024/01/07 16:46:38;;;;;;;853.58;717.00;;;;;;;;;;10381721;28;20080;-75
2024/01/07 16:51:39;;;;;;;834.08;678.95;;;;;;;;;;10368076;28;20024;-78
2024/01/07 16:56:39;;;;;;;847.35;706.05;;;;;;;;;;10331059;28;20045;-78
2024/01/07 17:01:39;;;;;;;834.42;687.90;;;;;;;;;;10330791;28;20074;-77
2024/01/07 17:06:39;;;;;;;840.08;700.67;;;;;;;;;;10351170;28;20188;-78
2024/01/07 17:11:41;;;;;;;844.35;711.08;;;;;;;;;;10351901;28;20024;-76
2024/01/07 17:16:42;;;;;;;836.03;675.00;;;;;;;;;;10332360;28;20040;-78
2024/01/07 17:21:42;;;;;;;847.40;707.95;;;;;;;;;;10350537;28;21105;-79
2024/01/07 17:26:42;;;;;;;828.83;679.70;;;;;;;;;;10326806;28;20026;-77
2024/01/07 17:31:43;;;;;;;808.85;602.70;;;;;;;;;;10358106;28;21109;-76
2024/01/07 17:36:43;;;;;;;846.25;702.20;;;;;;;;;;10340973;28;21217;-77
2024/01/07 17:41:43;;;;;;;746.28;660.28;;;;;;;;;;10340281;28;20906;-80
2024/01/07 17:46:43;;;;;;;825.33;633.60;;;;;;;;;;10344130;28;20022;-76
2024/01/07 17:51:44;;;;;;;824.72;627.08;;;;;;;;;;10350035;28;20029;-77
2024/01/07 17:56:44;;;;;;;735.60;654.75;;;;;;;;;;10345966;28;20018;-79
2024/01/07 18:01:48;;;;;;;736.25;653.67;;;;;;;;;;10338618;28;20162;-79
2024/01/07 18:06:48;;;;;;;772.90;654.53;;;;;;;;;;10343097;28;20038;-77
2024/01/07 18:11:48;;;;;;;802.13;674.30;;;;;;;;;;10327764;28;20300;-79
2024/01/07 18:16:49;;;;;;;836.97;673.47;;;;;;;;;;10347584;28;20388;-75
2024/01/07 18:21:49;;;;;;;833.40;672.23;;;;;;;;;;10339883;28;20026;-77
2024/01/07 18:26:55;;;;;;;817.28;663.60;;;;;;;;;;10340961;28;20277;-77
2024/01/07 18:31:56;;;;;;;822.92;643.83;;;;;;;;;;10341671;28;20381;-78
2024/01/07 18:36:56;;;;;;;836.20;688.17;;;;;;;;;;10342754;28;20348;-77
2024/01/07 18:41:56;;;;;;;828.63;691.33;;;;;;;;;;10346437;28;20296;-77
2024/01/07 18:46:57;;;;;;;802.03;697.55;;;;;;;;;;10345756;28;20373;-78
2024/01/07 18:51:57;;;;;;;835.38;711.22;;;;;;;;;;10333816;28;20018;-77
2024/01/07 18:57:00;;;;;;;824.85;675.50;;;;;;;;;;10327112;28;20025;-77
2024/01/07 19:02:01;;;;;;;822.50;681.35;;;;;;;;;;10344961;28;20042;-77
2024/01/07 19:07:02;;;;;;;807.65;673.10;;;;;;;;;;10342087;28;20046;-77
2024/01/07 19:12:02;;;;;;;807.05;652.30;;;;;;;;;;10347465;28;20335;-78
2024/01/07 19:17:04;;;;;;;820.53;718.00;;;;;;;;;;10342142;28;20025;-79
2024/01/07 19:22:04;;;;;;;843.85;726.15;;;;;;;;;;10337907;28;20338;-77
2024/01/07 19:27:05;;;;;;;853.67;736.10;;;;;;;;;;10335965;28;20304;-77
2024/01/07 19:32:05;;;;;;;837.60;723.03;;;;;;;;;;10337888;28;20045;-75
2024/01/07 19:37:05;;;;;;;610.23;545.47;;;;;;;;;;10355242;28;20013;-76
2024/01/07 19:42:07;;;;;;;734.25;659.50;;;;;;;;;;10363913;28;20257;-78
2024/01/07 19:47:07;;;;;;;737.17;665.80;;;;;;;;;;10345814;28;20282;-75
2024/01/07 19:52:08;;;;;;;721.70;646.40;;;;;;;;;;10346862;28;20045;-75
2024/01/07 19:57:08;;;;;;;749.60;678.58;;;;;;;;;;10353558;28;20097;-76
2024/01/07 20:02:08;;;;;;;747.95;679.53;;;;;;;;;;10364863;28;20030;-74
2024/01/07 20:07:09;;;;;;;731.90;657.88;;;;;;;;;;10366106;28;20030;-76
2024/01/07 20:12:09;;;;;;;742.80;667.08;;;;;;;;;;10367100;28;20318;-75
2024/01/07 20:17:09;;;;;;;767.03;693.95;;;;;;;;;;10366086;28;20294;-74
2024/01/07 20:22:11;;;;;;;749.13;679.28;;;;;;;;;;10367052;28;20235;-76
2024/01/07 20:27:11;;;;;;;770.33;696.05;;;;;;;;;;10367724;28;20037;-74
2024/01/07 20:32:13;;;;;;;731.97;662.38;;;;;;;;;;10362180;28;20033;-73
2024/01/07 20:37:13;;;;;;;748.50;674.45;;;;;;;;;;10371296;28;20053;-72
2024/01/07 20:42:13;;;;;;;726.83;652.38;;;;;;;;;;10355623;28;20032;-73
2024/01/07 20:47:13;;;;;;;747.92;671.35;;;;;;;;;;10372553;28;20334;-73
2024/01/07 20:52:18;;;;;;;732.83;655.95;;;;;;;;;;10373304;28;20034;-73
2024/01/07 20:57:18;;;;;;;694.38;619.85;;;;;;;;;;10357015;28;20080;-74
2024/01/07 21:02:19;;;;;;;800.25;621.33;;;;;;;;;;10375099;28;20250;-73
2024/01/07 21:07:19;;;;;;;796.42;680.65;;;;;;;;;;10378651;28;20034;-73
2024/01/07 21:12:19;;;;;;;747.25;650.00;;;;;;;;;;10380990;28;20025;-73
2024/01/07 21:17:19;;;;;;;763.97;680.38;;;;;;;;;;10380070;28;20322;-72
2024/01/07 21:22:19;;;;;;;777.78;679.88;;;;;;;;;;10380061;28;20018;-73
2024/01/07 21:27:20;;;;;;;724.95;650.17;;;;;;;;;;10379771;28;20252;-73
2024/01/07 21:32:20;;;;;;;744.45;673.25;;;;;;;;;;10379592;28;20242;-74
2024/01/07 21:37:21;;;;;;;729.35;655.58;;;;;;;;;;10379726;28;20061;-72
2024/01/07 21:42:21;;;;;;;704.03;634.90;;;;;;;;;;10379222;28;20022;-72
2024/01/07 21:47:22;;;;;;;727.53;661.53;;;;;;;;;;10378951;28;20029;-73
2024/01/07 21:52:28;;;;;;;755.07;681.83;;;;;;;;;;10379835;28;20018;-72
2024/01/07 21:57:28;;;;;;;773.92;689.92;;;;;;;;;;10378833;28;20093;-74
2024/01/07 22:02:28;;;;;;;830.80;689.53;;;;;;;;;;10416960;28;20052;-72
2024/01/07 22:07:28;;;;;;;823.28;708.35;;;;;;;;;;10417324;28;20219;-74
2024/01/07 22:12:29;;;;;;;771.03;685.88;;;;;;;;;;10421690;28;20366;-74
2024/01/07 22:17:29;;;;;;;782.85;699.30;;;;;;;;;;10420110;28;20024;-74
2024/01/07 22:22:30;;;;;;;817.38;678.72;;;;;;;;;;10419574;28;20026;-73
2024/01/07 22:27:33;;;;;;;729.35;651.00;;;;;;;;;;10419588;28;20251;-73
2024/01/07 22:32:33;;;;;;;712.25;612.60;;;;;;;;;;10419627;28;20245;-73
2024/01/07 22:37:33;;;;;;;777.17;692.20;;;;;;;;;;10419766;28;20025;-73
2024/01/07 22:42:34;;;;;;;685.00;627.45;;;;;;;;;;10419784;28;20081;-75
2024/01/07 22:47:34;;;;;;;679.65;626.03;;;;;;;;;;10420681;28;20349;-73
2024/01/07 22:52:34;;;;;;;652.50;599.83;;;;;;;;;;10400124;28;20063;-73
2024/01/07 22:57:35;;;;;;;701.83;638.75;;;;;;;;;;10400931;28;20449;-74
2024/01/07 23:02:35;;;;;;;762.75;684.85;;;;;;;;;;10418550;28;20319;-73
2024/01/07 23:07:35;;;;;;;739.63;660.08;;;;;;;;;;10418111;28;20017;-72
2024/01/07 23:12:36;;;;;;;745.70;669.75;;;;;;;;;;10418103;28;20013;-74
2024/01/07 23:17:39;;;;;;;747.33;672.08;;;;;;;;;;10417904;28;20013;-74
2024/01/07 23:22:39;;;;;;;749.72;664.30;;;;;;;;;;10417674;28;20196;-73
2024/01/07 23:27:40;;;;;;;751.72;669.90;;;;;;;;;;10417762;28;20028;-74
2024/01/07 23:32:40;;;;;;;773.40;695.42;;;;;;;;;;10411882;28;20037;-73
2024/01/07 23:37:41;;;;;;;733.78;660.47;;;;;;;;;;10386771;28;20125;-73
2024/01/07 23:42:41;;;;;;;772.00;692.03;;;;;;;;;;10400814;28;20037;-73
2024/01/07 23:47:41;;;;;;;846.25;709.88;;;;;;;;;;10417998;28;20091;-73
2024/01/07 23:52:41;;;;;;;765.88;688.30;;;;;;;;;;10416923;28;20220;-73
2024/01/07 23:57:42;;;;;;;841.00;696.30;;;;;;;;;;10417178;28;20291;-73
